Tuscaloosa, AL

6:04 PM CDT on September 02, 2015 (GMT -0500)
TDOT | | Change Station
CLOSE
Current Station
Personal Weather Station
Location: Tuscaloosa, AL
Elevation: 200 ft
Nearby Weather Stations

Elev 200 ft 33.20 °N, 87.57 °W | Updated 3 minutes ago

Partly Cloudy
Partly Cloudy
88.1 °F
Feels Like 97 °F
N
1.0
Wind Variable Wind from NE
Gusts 16.0 mph

Today
High -- | Low -- °F
--% Chance of Precip.
Yesterday
High -- | Low -- °F
Precip. -- in
6:25 AM 7:14 PM
Waning Gibbous, 76% visible
Pressure 29.98 in
Visibility 7.0 miles
Clouds Clear
Heat Index 97 °F
Dew Point 74 °F
Humidity 64%
Rainfall 0.00 in
Snow Depth Not available.
UV 1 out of 12
Pollen 9.10 out of 12
Air Quality Not available.
Flu Activity Not available.
METAR KTCL 022253Z 00000KT 7SM CLR 29/24 A2999 RMK AO2 SLP152 T02890244
Pressure 29.98 in
Visibility 7.0 miles
Clouds Clear
Heat Index 97 °F
Dew Point 74 °F
Humidity 64%
Rainfall 0.00 in
Snow Depth Not available.
UV 1 out of 12
Pollen 9.10 out of 12
Air Quality Not available.
Flu Activity Not available.
METAR KTCL 022253Z 00000KT 7SM CLR 29/24 A2999 RMK AO2 SLP152 T02890244

10-Day Weather Forecast

×

Almanac

Astronomy

Sep. 02, 2015 Rise Set
Actual Time
Civil Twilight
Nautical Twilight
Astronomical Twilight
Moon
Length of Visible Light
Length of Day
Tomorrow will be .
, % of the Moon is Illuminated

Today's Extremes

State Highs State Lows

Community

WunderPhotos

Upload Photos

1,851,821 photos uploaded!

WunderBlogs® & News

Nearby

Air Quality

  Air Quality AQ Index Pollutant
Not available.

Snow Depth

Station Depth Elevation

Earthquake Activity

City Distance Mag. Time & Date
Minimum magnitude displayed is 2.5.

Coastal Water Temperatures

Place Temperature

Stations

Nearby Weather Stations

Station Location Temp. Windchill Dew Point Humidity Wind Precip. Elev Updated Type